createdAt,value
2018-02-13T00:01:21.931Z,94.90
2018-02-13T00:03:49.381Z,95.30
2018-02-13T00:06:16.803Z,95.20
2018-02-13T00:08:44.223Z,95.40
2018-02-13T00:11:12.419Z,95.80
2018-02-13T00:13:39.847Z,95.80
2018-02-13T00:16:07.290Z,95.90
2018-02-13T00:18:34.727Z,96.20
2018-02-13T00:21:02.163Z,96.30
2018-02-13T00:23:29.623Z,96.60
2018-02-13T00:25:57.056Z,96.40
2018-02-13T00:28:24.479Z,96.50
2018-02-13T00:30:52.677Z,96.20
2018-02-13T00:33:20.128Z,96.20
2018-02-13T00:35:47.540Z,96.20
2018-02-13T00:38:14.960Z,96.00
2018-02-13T00:40:43.171Z,95.70
2018-02-13T00:43:10.591Z,95.70
2018-02-13T00:45:38.023Z,95.20
2018-02-13T00:48:05.460Z,95.40
2018-02-13T00:50:32.920Z,95.70
2018-02-13T00:53:00.335Z,95.80
2018-02-13T00:55:27.770Z,96.10
2018-02-13T00:57:55.971Z,96.00
2018-02-13T01:00:24.112Z,95.90
2018-02-13T01:02:51.547Z,95.90
2018-02-13T01:05:19.008Z,95.80
2018-02-13T01:07:46.435Z,95.70
2018-02-13T01:10:13.864Z,95.70
2018-02-13T01:12:41.307Z,95.10
2018-02-13T01:15:09.511Z,94.60
2018-02-13T01:17:36.922Z,94.60
2018-02-13T01:20:04.356Z,94.50
2018-02-13T01:22:31.775Z,94.10
2018-02-13T01:24:59.967Z,92.80
2018-02-13T01:27:27.402Z,92.80
2018-02-13T01:29:54.829Z,92.90
2018-02-13T01:32:23.017Z,93.40
2018-02-13T01:34:50.433Z,93.40
2018-02-13T01:37:17.873Z,94.00
2018-02-13T01:39:46.046Z,94.20
2018-02-13T01:42:13.488Z,94.30
2018-02-13T01:44:40.908Z,94.30
2018-02-13T01:47:09.095Z,94.50
2018-02-13T01:49:36.519Z,94.40
2018-02-13T01:52:03.948Z,94.50
2018-02-13T01:54:32.135Z,94.80
2018-02-13T01:56:59.571Z,94.80
2018-02-13T01:59:27.012Z,94.70
2018-02-13T02:01:54.469Z,94.80
2018-02-13T02:04:21.896Z,94.80
2018-02-13T02:06:49.337Z,94.80
2018-02-13T02:09:16.758Z,94.80
2018-02-13T02:11:44.179Z,94.40
2018-02-13T02:14:11.635Z,94.90
2018-02-13T02:16:39.056Z,95.20
2018-02-13T02:19:06.492Z,95.50
2018-02-13T02:21:33.927Z,95.80
2018-02-13T02:24:01.360Z,96.00
2018-02-13T02:26:28.780Z,96.30
2018-02-13T02:28:56.192Z,96.40
2018-02-13T02:31:23.618Z,96.10
2018-02-13T02:33:51.844Z,96.60
2018-02-13T02:36:19.273Z,96.50
2018-02-13T02:38:46.699Z,97.10
2018-02-13T02:41:14.132Z,96.90
2018-02-13T02:43:41.563Z,97.00
2018-02-13T02:46:08.987Z,97.30
2018-02-13T02:48:37.199Z,97.30
2018-02-13T02:51:04.647Z,97.30
2018-02-13T02:53:32.064Z,97.40
2018-02-13T02:55:59.491Z,97.40
2018-02-13T02:58:26.936Z,97.10
2018-02-13T03:00:54.367Z,97.00
2018-02-13T03:03:21.792Z,97.30
2018-02-13T03:05:49.987Z,97.40
2018-02-13T03:08:17.432Z,97.30
2018-02-13T03:10:44.852Z,97.60
2018-02-13T03:13:12.291Z,97.20
2018-02-13T03:15:39.723Z,97.40
2018-02-13T03:18:07.940Z,97.30
2018-02-13T03:20:35.369Z,97.30
2018-02-13T03:23:02.797Z,97.60
2018-02-13T03:25:30.236Z,97.50
2018-02-13T03:27:57.675Z,97.50
2018-02-13T03:30:25.100Z,97.60
2018-02-13T03:32:52.547Z,97.40
2018-02-13T03:35:19.979Z,96.70
2018-02-13T03:37:47.427Z,96.90
2018-02-13T03:40:14.859Z,96.60
2018-02-13T03:42:43.056Z,96.80
2018-02-13T03:45:10.500Z,96.80
2018-02-13T03:47:37.940Z,96.80
2018-02-13T03:50:05.399Z,97.20
2018-02-13T03:52:32.818Z,97.40
2018-02-13T03:55:00.239Z,97.70
2018-02-13T03:57:27.675Z,97.80
2018-02-13T03:59:55.107Z,97.90
2018-02-13T04:02:22.539Z,97.20
2018-02-13T04:04:50.744Z,96.80
2018-02-13T04:07:18.176Z,96.70
2018-02-13T04:09:45.640Z,96.70
2018-02-13T04:12:13.072Z,96.70
2018-02-13T04:14:40.531Z,96.80
2018-02-13T04:17:07.960Z,96.70
2018-02-13T04:19:35.399Z,96.30
2018-02-13T04:22:02.819Z,96.00
2018-02-13T04:24:30.238Z,95.70
2018-02-13T04:26:58.428Z,95.50
2018-02-13T04:29:25.880Z,95.50
2018-02-13T04:31:53.312Z,95.50
2018-02-13T04:34:20.771Z,95.60
2018-02-13T04:36:48.199Z,95.80
2018-02-13T04:39:15.629Z,95.50
2018-02-13T04:41:43.071Z,95.80
2018-02-13T04:44:10.503Z,95.70
2018-02-13T04:46:38.722Z,95.60
2018-02-13T04:49:06.155Z,95.60
2018-02-13T04:51:33.584Z,95.80
2018-02-13T04:54:01.063Z,95.50
2018-02-13T04:56:29.263Z,95.60
2018-02-13T04:58:56.683Z,95.60
2018-02-13T05:01:24.136Z,95.80
2018-02-13T05:03:51.548Z,96.20
2018-02-13T05:06:19.755Z,96.20
2018-02-13T05:08:47.188Z,96.10
2018-02-13T05:11:14.632Z,95.80
2018-02-13T05:13:42.076Z,96.10
2018-02-13T05:16:09.539Z,96.20
2018-02-13T05:18:37.029Z,96.30
2018-02-13T05:21:04.408Z,96.10
2018-02-13T05:23:31.848Z,96.20
2018-02-13T05:25:59.368Z,96.00
2018-02-13T05:28:26.819Z,96.30
2018-02-13T05:30:54.227Z,96.20
2018-02-13T05:33:22.429Z,95.70
2018-02-13T05:35:49.872Z,95.70
2018-02-13T05:38:17.312Z,95.80
2018-02-13T05:40:44.735Z,95.40
2018-02-13T05:43:12.172Z,95.70
2018-02-13T05:45:39.603Z,96.00
2018-02-13T05:48:07.775Z,98.10
2018-02-13T05:50:35.214Z,98.10
2018-02-13T05:53:02.651Z,97.50
2018-02-13T05:55:30.098Z,98.00
2018-02-13T05:57:57.515Z,96.00
2018-02-13T06:00:25.719Z,94.60
2018-02-13T06:02:53.169Z,94.60
2018-02-13T06:05:20.739Z,94.90
2018-02-13T06:07:48.159Z,95.10
2018-02-13T06:10:15.587Z,95.80
2018-02-13T06:12:43.030Z,95.50
2018-02-13T06:15:10.439Z,95.90
2018-02-13T06:17:38.635Z,95.60
2018-02-13T06:20:06.083Z,95.60
2018-02-13T06:22:33.507Z,95.80
2018-02-13T06:25:00.939Z,95.50
2018-02-13T06:27:28.400Z,95.60
2018-02-13T06:29:55.824Z,96.10
2018-02-13T06:32:23.260Z,95.80
2018-02-13T06:34:50.698Z,98.10
2018-02-13T06:37:18.883Z,96.50
2018-02-13T06:39:46.315Z,96.50
2018-02-13T06:42:13.780Z,95.80
2018-02-13T06:44:41.236Z,95.40
2018-02-13T06:47:08.647Z,95.50
2018-02-13T06:49:36.103Z,95.20
2018-02-13T06:52:03.546Z,94.90
2018-02-13T06:54:30.967Z,95.00
2018-02-13T06:56:58.391Z,95.00
2018-02-13T06:59:25.837Z,94.80
2018-02-13T07:01:53.258Z,94.80
2018-02-13T07:04:21.463Z,95.10
2018-02-13T07:06:48.887Z,95.10
2018-02-13T07:09:16.319Z,95.00
2018-02-13T07:11:43.744Z,95.20
2018-02-13T07:14:11.195Z,95.20
2018-02-13T07:16:38.651Z,95.30
2018-02-13T07:19:06.831Z,95.30
2018-02-13T07:21:34.247Z,95.20
2018-02-13T07:24:01.684Z,95.30
2018-02-13T07:26:29.100Z,95.30
2018-02-13T07:28:57.324Z,95.10
2018-02-13T07:31:24.739Z,95.10
2018-02-13T07:33:52.176Z,94.80
2018-02-13T07:36:19.591Z,94.80
2018-02-13T07:38:47.011Z,94.60
2018-02-13T07:41:14.439Z,94.30
2018-02-13T07:43:41.876Z,94.50
2018-02-13T07:46:09.307Z,94.30
2018-02-13T07:48:36.732Z,94.20
2018-02-13T07:51:04.176Z,94.00
2018-02-13T07:53:31.605Z,93.90
2018-02-13T07:55:59.050Z,93.80
2018-02-13T07:58:26.472Z,93.60
2018-02-13T08:00:53.904Z,93.50
2018-02-13T08:03:22.087Z,93.30
2018-02-13T08:05:49.509Z,93.30
2018-02-13T08:08:16.939Z,92.90
2018-02-13T08:10:45.124Z,91.30
2018-02-13T08:13:12.564Z,91.30
2018-02-13T08:15:39.981Z,90.80
2018-02-13T08:18:08.175Z,88.80
2018-02-13T08:20:35.614Z,88.80
2018-02-13T08:23:03.056Z,87.30
2018-02-13T08:25:30.481Z,86.50
2018-02-13T08:27:57.899Z,86.60
2018-02-13T08:30:26.091Z,89.00
2018-02-13T08:32:53.524Z,89.00
2018-02-13T08:35:20.947Z,90.00
2018-02-13T08:37:49.132Z,90.10
2018-02-13T08:40:16.555Z,90.10
2018-02-13T08:42:43.975Z,90.20
2018-02-13T08:45:11.399Z,90.30
2018-02-13T08:47:38.839Z,90.70
2018-02-13T08:50:06.286Z,90.50
2018-02-13T08:52:33.709Z,90.40
2018-02-13T08:55:01.151Z,90.70
2018-02-13T08:57:28.587Z,90.30
2018-02-13T08:59:56.022Z,89.60
2018-02-13T09:02:23.454Z,90.20
2018-02-13T09:04:50.895Z,90.40
2018-02-13T09:07:18.313Z,90.50
2018-02-13T09:09:45.736Z,90.00
2018-02-13T09:12:13.167Z,89.20
2018-02-13T09:14:41.356Z,88.00
2018-02-13T09:17:08.787Z,88.00
2018-02-13T09:19:36.988Z,87.80
2018-02-13T09:22:04.398Z,87.80
2018-02-13T09:24:31.836Z,87.50
2018-02-13T09:26:59.268Z,88.30
2018-02-13T09:29:27.463Z,86.50
2018-02-13T09:31:54.891Z,86.50
2018-02-13T09:34:22.316Z,85.90
2018-02-13T09:36:50.516Z,86.00
2018-02-13T09:39:17.952Z,86.00
2018-02-13T09:41:45.380Z,82.00
2018-02-13T09:44:12.803Z,80.60
2018-02-13T09:46:40.983Z,79.10
2018-02-13T09:49:08.399Z,79.00
2018-02-13T09:51:35.815Z,78.20
2018-02-13T09:54:04.024Z,73.30
2018-02-13T09:56:31.431Z,74.60
2018-02-13T09:58:59.641Z,74.90
2018-02-13T10:01:27.067Z,74.90
2018-02-13T10:03:54.501Z,73.10
2018-02-13T10:06:21.919Z,72.90
2018-02-13T10:08:50.111Z,71.10
2018-02-13T10:11:17.539Z,71.00
2018-02-13T10:13:44.962Z,70.10
2018-02-13T10:16:13.147Z,69.10
2018-02-13T10:18:40.572Z,68.90
2018-02-13T10:21:07.996Z,71.10
2018-02-13T10:23:36.179Z,67.40
2018-02-13T10:26:03.627Z,67.30
2018-02-13T10:28:31.064Z,65.50
2018-02-13T10:30:58.499Z,66.40
2018-02-13T10:33:25.933Z,65.30
2018-02-13T10:35:54.115Z,64.60
2018-02-13T10:38:21.531Z,64.50
2018-02-13T10:40:48.955Z,59.90
2018-02-13T10:43:17.168Z,56.50
2018-02-13T10:45:44.571Z,56.50
2018-02-13T10:48:12.083Z,55.00
2018-02-13T10:50:39.496Z,54.40
2018-02-13T10:53:06.947Z,56.60
2018-02-13T10:55:34.359Z,56.50
2018-02-13T10:58:01.771Z,55.30
2018-02-13T11:00:35.614Z,52.70
2018-02-13T11:03:03.037Z,52.70
2018-02-13T11:05:30.460Z,51.00
2018-02-13T11:07:57.892Z,51.30
2018-02-13T11:10:26.067Z,50.70
2018-02-13T11:12:53.507Z,50.70
2018-02-13T11:15:20.940Z,51.10
2018-02-13T11:17:48.363Z,50.20
2018-02-13T11:20:16.555Z,49.10
2018-02-13T11:22:43.976Z,49.10
2018-02-13T11:25:12.169Z,44.90
2018-02-13T11:27:39.583Z,44.90
2018-02-13T11:30:07.010Z,44.70
2018-02-13T11:32:34.468Z,43.90
2018-02-13T11:35:02.624Z,43.10
2018-02-13T11:37:30.056Z,42.90
2018-02-13T11:39:57.464Z,41.00
2018-02-13T11:42:24.891Z,40.20
2018-02-13T11:44:52.320Z,40.30
2018-02-13T11:47:19.745Z,39.30
2018-02-13T11:49:47.160Z,39.60
2018-02-13T11:52:15.348Z,40.10
2018-02-13T11:54:42.783Z,40.10
2018-02-13T11:57:10.200Z,38.90
2018-02-13T11:59:38.397Z,36.90
2018-02-13T12:02:05.824Z,36.80
2018-02-13T12:04:33.265Z,37.70
2018-02-13T12:07:00.702Z,36.90
2018-02-13T12:09:28.119Z,37.40
2018-02-13T12:11:56.296Z,36.30
2018-02-13T12:14:23.719Z,36.30
2018-02-13T12:16:51.908Z,35.80
2018-02-13T12:19:19.335Z,35.30
2018-02-13T12:21:46.765Z,37.20
2018-02-13T12:24:14.183Z,36.20
2018-02-13T12:26:41.608Z,36.40
2018-02-13T12:29:09.030Z,34.30
2018-02-13T12:31:36.439Z,35.30
2018-02-13T12:34:03.874Z,33.70
2018-02-13T12:36:32.056Z,34.20
2018-02-13T12:38:59.523Z,34.20
2018-02-13T12:41:26.955Z,32.30
2018-02-13T12:43:54.377Z,30.40
2018-02-13T12:46:21.795Z,30.30
2018-02-13T12:48:49.975Z,28.80
2018-02-13T12:51:17.411Z,28.80
2018-02-13T12:53:44.835Z,29.00
2018-02-13T12:56:13.068Z,28.60
2018-02-13T12:58:40.498Z,28.90
2018-02-13T13:01:07.919Z,29.70
2018-02-13T13:03:35.344Z,28.90
2018-02-13T13:06:02.818Z,27.70
2018-02-13T13:08:30.226Z,27.20
2018-02-13T13:10:57.648Z,28.90
2018-02-13T13:13:25.843Z,27.00
2018-02-13T13:15:53.267Z,27.00
2018-02-13T13:18:20.699Z,28.00
2018-02-13T13:20:48.119Z,27.60
2018-02-13T13:23:16.311Z,28.40
2018-02-13T13:25:43.743Z,28.40
2018-02-13T13:28:11.195Z,28.60
2018-02-13T13:30:38.615Z,28.90
2018-02-13T13:33:06.815Z,28.70
2018-02-13T13:35:34.240Z,28.70
2018-02-13T13:38:01.679Z,27.10
2018-02-13T13:40:29.099Z,27.50
2018-02-13T13:42:57.302Z,27.60
2018-02-13T13:45:24.723Z,27.60
2018-02-13T13:47:52.155Z,26.40
2018-02-13T13:50:19.589Z,27.20
2018-02-13T13:52:47.066Z,27.20
2018-02-13T13:55:14.471Z,26.70
2018-02-13T13:57:41.960Z,27.00
2018-02-13T14:00:09.382Z,28.10
2018-02-13T14:02:36.855Z,27.30
2018-02-13T14:05:04.277Z,26.60
2018-02-13T14:07:31.767Z,27.60
2018-02-13T14:09:59.176Z,28.80
2018-02-13T14:12:26.652Z,27.80
2018-02-13T14:14:54.024Z,27.30
2018-02-13T14:17:26.979Z,27.70
2018-02-13T14:19:54.418Z,28.10
2018-02-13T14:22:21.840Z,28.70
2018-02-13T14:24:49.283Z,28.50
2018-02-13T14:27:17.508Z,27.80
2018-02-13T14:29:44.929Z,27.80
2018-02-13T14:32:12.360Z,27.60
2018-02-13T14:34:39.783Z,28.00
2018-02-13T14:37:07.212Z,28.00
2018-02-13T14:39:35.421Z,27.40
2018-02-13T14:42:02.867Z,27.30
2018-02-13T14:44:30.303Z,27.40
2018-02-13T14:46:57.728Z,26.30
2018-02-13T14:49:25.153Z,26.20
2018-02-13T14:51:52.591Z,26.40
2018-02-13T14:54:20.012Z,26.90
2018-02-13T14:56:48.191Z,28.00
2018-02-13T14:59:15.622Z,28.00
2018-02-13T15:01:47.763Z,28.30
2018-02-13T15:04:15.948Z,28.80
2018-02-13T15:06:43.381Z,28.80
2018-02-13T15:09:11.583Z,28.10
2018-02-13T15:11:39.009Z,28.10
2018-02-13T15:14:06.428Z,29.20
2018-02-13T15:16:33.863Z,28.90
2018-02-13T15:19:02.081Z,29.70
2018-02-13T15:21:29.500Z,29.70
2018-02-13T15:23:56.921Z,31.30
2018-02-13T15:26:24.331Z,31.50
2018-02-13T15:28:52.520Z,31.10
2018-02-13T15:31:19.992Z,31.10
2018-02-13T15:33:47.410Z,32.90
2018-02-13T15:36:14.830Z,33.10
2018-02-13T15:38:42.259Z,32.80
2018-02-13T15:41:10.458Z,35.00
2018-02-13T15:43:37.872Z,34.90
2018-02-13T15:46:05.306Z,34.90
2018-02-13T15:48:33.504Z,36.30
2018-02-13T15:51:00.940Z,36.30
2018-02-13T15:53:28.375Z,36.30
2018-02-13T15:55:55.811Z,36.70
2018-02-13T15:58:23.219Z,37.70
2018-02-13T16:00:51.411Z,38.80
2018-02-13T16:03:18.827Z,38.30
2018-02-13T16:05:47.023Z,40.20
2018-02-13T16:08:14.480Z,40.10
2018-02-13T16:10:41.920Z,40.40
2018-02-13T16:13:09.339Z,41.90
2018-02-13T16:15:36.776Z,43.30
2018-02-13T16:18:04.952Z,45.80
2018-02-13T16:20:32.367Z,45.70
2018-02-13T16:22:59.847Z,46.70
2018-02-13T16:25:27.263Z,47.70
2018-02-13T16:27:54.675Z,49.20
2018-02-13T16:30:23.420Z,50.20
2018-02-13T16:32:50.843Z,50.20
2018-02-13T16:35:18.260Z,51.20
2018-02-13T16:37:45.687Z,51.20
2018-02-13T16:40:13.112Z,51.30
2018-02-13T16:42:41.300Z,52.80
2018-02-13T16:45:08.711Z,52.20
2018-02-13T16:47:36.920Z,53.20
2018-02-13T16:50:04.344Z,53.20
2018-02-13T16:52:31.764Z,53.80
2018-02-13T16:54:59.203Z,54.70
2018-02-13T16:57:27.383Z,55.10
2018-02-13T16:59:54.803Z,55.10
2018-02-13T17:02:23.007Z,56.00
2018-02-13T17:04:50.426Z,56.00
2018-02-13T17:07:17.863Z,55.70
2018-02-13T17:09:45.299Z,56.80
2018-02-13T17:12:12.723Z,56.90
2018-02-13T17:14:40.910Z,57.90
2018-02-13T17:17:08.393Z,57.80
2018-02-13T17:19:35.851Z,57.70
2018-02-13T17:22:03.264Z,70.50
2018-02-13T17:24:30.680Z,66.00
2018-02-13T17:26:58.103Z,66.10
2018-02-13T17:29:25.547Z,66.80
2018-02-13T17:31:52.975Z,64.40
2018-02-13T17:34:21.172Z,59.00
2018-02-13T17:36:48.583Z,59.00
2018-02-13T17:39:16.008Z,61.20
2018-02-13T17:41:44.192Z,62.80
2018-02-13T17:44:11.628Z,62.60
2018-02-13T17:46:39.054Z,63.40
2018-02-13T17:49:07.242Z,62.70
2018-02-13T17:51:34.679Z,62.70
2018-02-13T17:54:02.133Z,64.30
2018-02-13T17:56:29.548Z,64.20
2018-02-13T17:58:56.971Z,65.70
2018-02-13T18:01:25.164Z,65.80
2018-02-13T18:03:52.587Z,65.80
2018-02-13T18:06:20.019Z,67.60
2018-02-13T18:08:48.225Z,68.40
2018-02-13T18:11:15.644Z,68.30
2018-02-13T18:13:43.072Z,67.80
2018-02-13T18:16:11.266Z,70.90
2018-02-13T18:18:38.687Z,70.90
2018-02-13T18:21:06.112Z,70.80
2018-02-13T18:23:34.303Z,72.30
2018-02-13T18:26:01.735Z,72.20
2018-02-13T18:28:29.165Z,73.00
2018-02-13T18:30:56.595Z,72.20
2018-02-13T18:33:24.800Z,73.60
2018-02-13T18:35:52.243Z,74.20
2018-02-13T18:38:19.664Z,73.20
2018-02-13T18:40:47.103Z,74.00
2018-02-13T18:43:14.523Z,74.70
2018-02-13T18:45:41.952Z,74.60
2018-02-13T18:48:09.383Z,76.90
2018-02-13T18:50:36.840Z,76.00
2018-02-13T18:55:31.681Z,75.10
2018-02-13T18:57:59.119Z,76.40
2018-02-13T19:00:26.539Z,76.20
2018-02-13T19:02:53.971Z,76.20
2018-02-13T19:05:21.402Z,75.10
2018-02-13T19:07:48.828Z,75.10
2018-02-13T19:10:17.015Z,74.80
2018-02-13T19:12:44.464Z,74.70
2018-02-13T19:15:11.875Z,74.70
2018-02-13T19:17:40.080Z,74.90
2018-02-13T19:20:07.488Z,74.90
2018-02-13T19:22:34.963Z,73.20
2018-02-13T19:25:02.416Z,73.90
2018-02-13T19:27:29.846Z,74.60
2018-02-13T19:29:57.280Z,72.70
2018-02-13T19:32:24.707Z,74.10
2018-02-13T19:34:52.140Z,73.00
2018-02-13T19:37:19.579Z,73.00
2018-02-13T19:39:47.013Z,73.30
2018-02-13T19:42:14.450Z,74.00
2018-02-13T19:44:41.879Z,74.30
2018-02-13T19:47:10.086Z,74.50
2018-02-13T19:49:37.520Z,74.40
2018-02-13T19:52:04.960Z,74.50
2018-02-13T19:54:32.384Z,73.50
2018-02-13T19:56:59.806Z,74.40
2018-02-13T19:59:28.003Z,74.00
2018-02-13T20:01:55.428Z,74.00
2018-02-13T20:04:22.859Z,75.60
2018-02-13T20:06:51.056Z,75.50
2018-02-13T20:09:18.478Z,75.40
2018-02-13T20:11:45.913Z,76.60
2018-02-13T20:14:13.344Z,76.70
2018-02-13T20:16:41.536Z,76.20
2018-02-13T20:19:08.977Z,76.10
2018-02-13T20:21:36.395Z,76.70
2018-02-13T20:24:04.596Z,77.10
2018-02-13T20:26:32.047Z,77.10
2018-02-13T20:28:59.463Z,78.70
2018-02-13T20:31:26.892Z,78.30
2018-02-13T20:33:54.315Z,79.10
2018-02-13T20:36:21.744Z,78.70
2018-02-13T20:38:49.935Z,80.10
2018-02-13T20:41:17.352Z,80.10
2018-02-13T20:43:44.776Z,79.50
2018-02-13T20:46:12.199Z,79.30
2018-02-13T20:48:40.390Z,80.20
2018-02-13T20:51:08.587Z,80.40
2018-02-13T20:53:36.031Z,80.30
2018-02-13T20:56:03.488Z,80.20
2018-02-13T20:58:30.903Z,80.40
2018-02-13T21:00:58.353Z,80.00
2018-02-13T21:03:25.782Z,79.80
2018-02-13T21:05:53.228Z,80.90
2018-02-13T21:08:20.660Z,80.60
2018-02-13T21:10:48.080Z,80.20
2018-02-13T21:13:16.263Z,79.90
2018-02-13T21:15:43.698Z,79.90
2018-02-13T21:18:11.120Z,80.70
2018-02-13T21:20:39.320Z,81.00
2018-02-13T21:23:06.756Z,80.90
2018-02-13T21:25:34.184Z,81.10
2018-02-13T21:28:01.627Z,80.50
2018-02-13T21:30:29.051Z,82.00
2018-02-13T21:32:56.496Z,81.50
2018-02-13T21:35:23.915Z,81.60
2018-02-13T21:37:52.140Z,80.60
2018-02-13T21:40:19.559Z,80.40
2018-02-13T21:42:46.987Z,80.90
2018-02-13T21:45:14.408Z,80.40
2018-02-13T21:47:42.599Z,81.00
2018-02-13T21:50:10.040Z,80.90
2018-02-13T21:52:37.478Z,82.30
2018-02-13T21:55:04.912Z,81.10
2018-02-13T21:57:32.339Z,81.70
2018-02-13T21:59:59.776Z,81.70
2018-02-13T22:02:28.004Z,81.40
2018-02-13T22:04:55.436Z,81.40
2018-02-13T22:07:22.851Z,81.70
2018-02-13T22:09:50.288Z,82.20
2018-02-13T22:12:17.725Z,82.40
2018-02-13T22:14:45.152Z,82.60
2018-02-13T22:17:12.599Z,82.20
2018-02-13T22:19:40.056Z,83.00
2018-02-13T22:22:07.492Z,82.80
2018-02-13T22:24:34.931Z,81.80
2018-02-13T22:27:02.418Z,82.60
2018-02-13T22:29:30.534Z,81.90
2018-02-13T22:31:57.975Z,81.60
2018-02-13T22:34:25.407Z,81.50
2018-02-13T22:36:53.597Z,81.00
2018-02-13T22:39:21.035Z,81.00
2018-02-13T22:41:48.492Z,80.70
2018-02-13T22:44:15.955Z,82.00
2018-02-13T22:46:43.368Z,82.10
2018-02-13T22:49:10.799Z,82.40
2018-02-13T22:51:38.245Z,81.80
2018-02-13T22:54:05.683Z,82.30
2018-02-13T22:56:33.112Z,82.70
2018-02-13T22:59:00.544Z,83.30
2018-02-13T23:01:27.991Z,83.10
2018-02-13T23:03:55.408Z,84.10
2018-02-13T23:06:23.605Z,85.20
2018-02-13T23:08:51.040Z,85.00
2018-02-13T23:11:18.459Z,84.90
2018-02-13T23:13:45.890Z,85.30
2018-02-13T23:16:14.089Z,86.60
2018-02-13T23:18:41.550Z,86.60
2018-02-13T23:21:08.979Z,87.20
2018-02-13T23:23:36.416Z,86.50
2018-02-13T23:26:03.851Z,86.30
2018-02-13T23:28:31.279Z,87.40
2018-02-13T23:30:58.725Z,88.80
2018-02-13T23:33:26.188Z,89.00
2018-02-13T23:35:53.616Z,89.10
2018-02-13T23:38:21.035Z,88.70
2018-02-13T23:40:48.480Z,87.60
2018-02-13T23:43:15.960Z,89.70
2018-02-13T23:45:43.400Z,88.00
2018-02-13T23:48:10.855Z,88.20
2018-02-13T23:50:38.266Z,89.40
2018-02-13T23:53:05.707Z,89.40
2018-02-13T23:55:33.143Z,89.20
2018-02-13T23:58:00.567Z,89.80
